Главная страница
METAR-TAF:

METAR-TAF

Аэропорты :

Флорешты, Молдавия

широта: 47-51-45N, долгота: 028-12-45E, высота над уровнем моря: 101 м

Текущие метеонаблюдения

Эта сводка был подготовлена 33 минут назад, в 08:00 UTC
Ветер 4 Узел от северо-восточный, изменяющийся между северный и восточный
Температура 27°C
Влажность 42%
Давление 1017 hPa
Видимость 10 км и более
Нет облачности ниже 1500 м, и нет кучево-дождевой облачности

METAR: LUBM 190800Z 04004KT 360V080 CAVOK 27/13 Q1017 R25/CLRD65

Время: 11:33 (08:33 UTC)

Прогноз

Эта сводка был подготовлена 2 часа и 3 минут назад, в 06:30 UTC
Прогноз действительный с 19-го 06 UTC до 19-го 15 UTC
Ветер 8 Узел от северный
Видимость 10 км и более
Нет облачности ниже 1500 м, и нет кучево-дождевой облачности
временами
С 19-го 10 UTC до 19-го 15 UTC
Отдельные облака на высоте 4500 фута, Кучево-дождевые.

TAF: LUBM 190630Z 1906/1915 36008KT CAVOK TEMPO 1910/1915 SCT045CB

Метеонаблюдения и прогнозы для более 4000 аэропортов (сводки METAR и TAF).

Имеющиеся станции представлены на карте желтыми и красными точками.

Чтобы увидеть название станции, наведите на нее мышь.

Затем щелкните, чтобы увидеть метеонаблюдения и метеопрогнозы.

Управление картой: чтобы увеличить масштаб, щелкните зеленые кнопки с черным крестиком; чтобы уменьшить масштаб, щелкните зеленую кнопку с тире; для просмотра соседних карт щелкайте зеленые стрелки.


METAR-TAF: